Ana Sayfa
METAR-TAF:

METAR-TAF

Havaalanları :

Madrid Barajas Uluslararası Havalimanı

Madrid, İspanya

Enlem: 40-27N, Boylam: 003-33W, yükseklik: 609 m

Güncel hava durumu gözlemi

Rapor saat 07:00 UTC de 24 dakika önce yapıldı.
Rüzgar değişken yönden 2 kt
Sıcaklık 12°C
Nem 88%
Basınç 1022 hPa
Görüş mesafesi 10 km veya daha fazla
1500 m altında bulut yok ve kümülonimbus yok

METAR: LEMD 230700Z VRB02KT CAVOK 12/10 Q1022 NOSIG

Saat: 09:24 (07:24 UTC)

Tahmin

Rapor saat 05:00 UTC de 2 saat ve 24 dakika önce yapıldı.
Ayın 23'si saat 06 UTC'den ayın 24'si saat 12 UTC'ye kadar geçerli Tahmin
Rüzgar değişken yönden 5 kt
Görüş mesafesi 10 km veya daha fazla
1500 m altında bulut yok ve kümülonimbus yok
Olasılık 30% :
Geçici
ayın 23'si saat 11 UTC'den ayın 23'si saat 17 UTC'ye kadar
Rüzgar güneybatıdan 10 kt

TAF: LEMD 230500Z 2306/2412 VRB05KT CAVOK TX24/2315Z TN10/2306Z PROB30 TEMPO 2311/2317 22010KT

4.000'den fazla havaalanı için hava durumu gözlemleri ve tahminleri (METAR ve TAF raporları).

Kullanılabilir istasyonlar harita üzerinde sarı ve kırmızı noktalarla gösterilir.

İstasyonun adını görmek için fareyi noktanın üzerinde gezdirin.

Sonrasında hava gözlem ve tahminlerini görmek için tıklayın.

Haritayı değiştirmek için: yaklaştırmak için siyah artı işaretli yeşil düğmeye ve uzaklaştırmak için de eksi işaretli düğmeye hızla tıklayın; bitişik haritalar için yeşil okları kullanın.


METAR-TAF: